Impacts METAR Board INFO
IDs:

KATL - Atlanta/Hartsfield-J, GA, US

Updated at: 0945 UTC 20 Nov 2017
Potential Impact None Slight Moderate High
Time19/21Z 19/22Z 19/23Z 20/00Z 20/01Z 20/02Z 20/03Z 20/04Z 20/05Z 20/06Z 20/07Z 20/08Z 20/09Z
VIS10 10 10 10 10 10 10 10 10 10 10 10 10
CIG-- -- -- -- -- -- -- -- -- -- -- -- --
CoverCLRCLRCLRCLRCLRCLRCLRCLRCLRCLRCLRCLRCLR
FltCatVFRVFRVFRVFRVFRVFRVFRVFRVFRVFRVFRVFRVFR
WX--------------------------
WDir320310320320330320330330320310320330320
WSpd13 12 10 11 8 7 6 8 6 6 8 11 8
WGst-- -- -- -- -- -- -- -- -- -- -- -- --
Raw hourly METARs
KATL 192052Z 32013KT 10SM CLR 12/01 A3002 RMK AO2 SLP166 T01170006 53003
KATL 192152Z 31012KT 10SM CLR 11/M01 A3003 RMK AO2 SLP171 T01111006
KATL 192252Z 32010KT 10SM CLR 09/M01 A3004 RMK AO2 SLP176 T00941006
KATL 192352Z 32011KT 10SM CLR 08/M01 A3008 RMK AO2 SLP190 T00831006 10122 20083 53020
KATL 200052Z 33008KT 10SM CLR 07/M01 A3011 RMK AO2 SLP200 T00721006
KATL 200152Z 32007KT 10SM CLR 06/M01 A3011 RMK AO2 SLP202 T00611006
KATL 200252Z 33006KT 10SM CLR 05/M01 A3013 RMK AO2 SLP206 T00501006 51016
KATL 200352Z 33008KT 10SM CLR 05/M01 A3015 RMK AO2 SLP213 T00501011
KATL 200452Z 32006KT 10SM CLR 04/M01 A3016 RMK AO2 SLP216 T00391011 401390033
KATL 200552Z 31006KT 10SM CLR 03/M02 A3016 RMK AO2 SLP218 T00281017 10083 20028 51011
KATL 200652Z 32008KT 10SM CLR 02/M02 A3016 RMK AO2 SLP216 T00221022
KATL 200752Z 33011KT 10SM CLR 02/M02 A3016 RMK AO2 SLP217 T00221022
KATL 200852Z 32008KT 10SM CLR 02/M02 A3017 RMK AO2 SLP221 T00171022 53002